Time,TemperatureF,DewpointF,PressureIn,WindDirection,WindDirectionDegrees,WindSpeedMPH,WindSpeedGustMPH,Humidity,HourlyPrecipIn,Conditions,Clouds,dailyrainin,SoftwareType,DateUTC
2013-02-03 00:00:00,3.9,-5.3,29.95,North,0,0.0,0.0,65,0.00,,,0.00,meteohub,2013-02-03 05:00:00,
2013-02-03 00:01:00,3.9,-5.3,29.95,North,0,0.0,0.0,65,0.00,,,0.00,meteohub,2013-02-03 05:01:00,
2013-02-03 00:02:00,3.9,-5.3,29.95,North,0,0.0,0.0,65,0.00,,,0.00,meteohub,2013-02-03 05:02:00,
2013-02-03 00:07:00,3.6,-5.6,29.95,North,0,0.0,0.0,65,0.00,,,0.00,meteohub,2013-02-03 05:07:00,
2013-02-03 00:12:00,3.4,-6.0,29.95,North,0,0.0,0.0,64,0.00,,,0.00,meteohub,2013-02-03 05:12:00,
2013-02-03 00:17:00,3.0,-6.2,29.95,North,0,0.0,0.0,65,0.00,,,0.00,meteohub,2013-02-03 05:17:00,
2013-02-03 00:23:00,2.8,-6.2,29.95,North,0,0.0,0.0,65,0.00,,,0.00,meteohub,2013-02-03 05:23:00,
2013-02-03 00:28:00,2.7,-6.3,29.95,North,0,0.0,0.0,65,0.00,,,0.00,meteohub,2013-02-03 05:28:00,
2013-02-03 00:33:00,2.5,-6.5,29.95,North,0,0.0,0.0,65,0.00,,,0.00,meteohub,2013-02-03 05:33:00,
2013-02-03 00:38:00,2.3,-6.7,29.94,North,0,0.0,0.0,65,0.00,,,0.00,meteohub,2013-02-03 05:38:00,
2013-02-03 00:43:00,2.1,-6.9,29.95,North,0,0.0,0.0,65,0.00,,,0.00,meteohub,2013-02-03 05:43:00,
2013-02-03 00:48:00,1.9,-7.1,29.94,North,0,0.0,0.0,65,0.00,,,0.00,meteohub,2013-02-03 05:48:00,
2013-02-03 00:53:00,1.9,-7.1,29.94,North,0,0.0,0.0,65,0.00,,,0.00,meteohub,2013-02-03 05:53:00,
2013-02-03 00:58:00,1.8,-7.2,29.94,North,0,0.0,0.0,65,0.00,,,0.00,meteohub,2013-02-03 05:58:00,
2013-02-03 01:04:00,1.8,-7.2,29.94,North,0,0.0,0.0,65,0.00,,,0.00,meteohub,2013-02-03 06:04:00,
2013-02-03 01:09:00,1.6,-7.4,29.94,North,0,0.0,0.0,65,0.00,,,0.00,meteohub,2013-02-03 06:09:00,
2013-02-03 01:14:00,1.6,-7.4,29.94,North,0,0.0,0.0,65,0.00,,,0.00,meteohub,2013-02-03 06:14:00,
2013-02-03 01:19:00,1.8,-7.2,29.94,North,0,0.0,0.0,65,0.00,,,0.00,meteohub,2013-02-03 06:19:00,
2013-02-03 01:24:00,1.8,-7.2,29.94,North,0,0.0,0.0,65,0.00,,,0.00,meteohub,2013-02-03 06:24:00,
2013-02-03 01:29:00,1.9,-7.1,29.94,North,0,0.0,0.0,65,0.00,,,0.00,meteohub,2013-02-03 06:29:00,
2013-02-03 01:34:00,2.1,-6.9,29.94,North,0,0.0,0.0,65,0.00,,,0.00,meteohub,2013-02-03 06:34:00,
2013-02-03 01:39:00,2.1,-6.9,29.93,North,0,0.0,0.0,65,0.00,,,0.00,meteohub,2013-02-03 06:39:00,
2013-02-03 01:44:00,2.3,-6.7,29.94,North,0,0.0,0.0,65,0.00,,,0.00,meteohub,2013-02-03 06:44:00,
2013-02-03 01:49:00,2.5,-6.3,29.93,North,0,0.0,0.0,66,0.00,,,0.00,meteohub,2013-02-03 06:49:00,
2013-02-03 01:55:00,2.7,-6.2,29.93,North,0,0.0,0.0,66,0.00,,,0.00,meteohub,2013-02-03 06:55:00,
2013-02-03 02:00:00,2.7,-6.2,29.93,North,0,0.0,0.0,66,0.00,,,0.00,meteohub,2013-02-03 07:00:00,
2013-02-03 02:05:00,2.7,-6.2,29.93,North,0,0.0,0.0,66,0.00,,,0.00,meteohub,2013-02-03 07:05:00,
2013-02-03 02:10:00,2.8,-6.0,29.92,North,0,0.0,0.0,66,0.00,,,0.00,meteohub,2013-02-03 07:10:00,
2013-02-03 02:15:00,3.0,-5.8,29.93,North,0,0.0,0.0,66,0.00,,,0.00,meteohub,2013-02-03 07:15:00,
2013-02-03 02:20:00,3.0,-5.8,29.92,NW,315,0.0,0.0,66,0.00,,,0.00,meteohub,2013-02-03 07:20:00,
2013-02-03 02:25:00,2.8,-6.0,29.93,NW,315,0.0,0.0,66,0.00,,,0.00,meteohub,2013-02-03 07:25:00,
2013-02-03 02:30:00,2.8,-6.0,29.92,NW,315,0.0,0.0,66,0.00,,,0.00,meteohub,2013-02-03 07:30:00,
2013-02-03 02:35:00,2.8,-6.0,29.92,NW,315,0.0,0.0,66,0.00,,,0.00,meteohub,2013-02-03 07:35:00,
2013-02-03 02:41:00,2.7,-6.2,29.92,NW,315,0.0,0.0,66,0.00,,,0.00,meteohub,2013-02-03 07:41:00,
2013-02-03 02:46:00,2.8,-6.0,29.92,NW,315,0.0,0.0,66,0.00,,,0.00,meteohub,2013-02-03 07:46:00,
2013-02-03 02:51:00,2.8,-6.0,29.92,NW,315,0.0,0.0,66,0.00,,,0.00,meteohub,2013-02-03 07:51:00,
2013-02-03 02:56:00,2.8,-6.0,29.92,NW,315,0.0,0.0,66,0.00,,,0.00,meteohub,2013-02-03 07:56:00,
2013-02-03 03:01:00,3.2,-6.0,29.92,North,0,0.0,0.0,65,0.00,,,0.00,meteohub,2013-02-03 08:01:00,
2013-02-03 03:06:00,3.2,-6.0,29.91,North,0,0.0,0.0,65,0.00,,,0.00,meteohub,2013-02-03 08:06:00,
2013-02-03 03:11:00,3.6,-5.6,29.91,North,0,0.0,0.0,65,0.00,,,0.00,meteohub,2013-02-03 08:11:00,
2013-02-03 03:16:00,3.6,-5.6,29.91,North,0,0.0,0.0,65,0.00,,,0.00,meteohub,2013-02-03 08:16:00,
2013-02-03 03:21:00,3.6,-5.6,29.91,North,0,0.0,0.0,65,0.00,,,0.00,meteohub,2013-02-03 08:21:00,
2013-02-03 03:26:00,3.6,-5.6,29.91,North,0,0.0,0.0,65,0.00,,,0.00,meteohub,2013-02-03 08:26:00,
2013-02-03 03:32:00,3.6,-5.6,29.90,North,0,0.0,0.0,65,0.00,,,0.00,meteohub,2013-02-03 08:32:00,
2013-02-03 03:37:00,3.2,-6.0,29.90,North,0,0.0,0.0,65,0.00,,,0.00,meteohub,2013-02-03 08:37:00,
2013-02-03 03:42:00,3.0,-5.8,29.90,North,0,0.0,0.0,66,0.00,,,0.00,meteohub,2013-02-03 08:42:00,
2013-02-03 03:47:00,2.8,-6.0,29.90,North,0,0.0,0.0,66,0.00,,,0.00,meteohub,2013-02-03 08:47:00,
2013-02-03 03:52:00,2.7,-6.2,29.89,North,0,0.0,0.0,66,0.00,,,0.00,meteohub,2013-02-03 08:52:00,
2013-02-03 03:57:00,2.5,-6.3,29.89,North,0,0.0,0.0,66,0.00,,,0.00,meteohub,2013-02-03 08:57:00,
2013-02-03 04:02:00,2.3,-6.5,29.89,North,0,0.0,0.0,66,0.00,,,0.00,meteohub,2013-02-03 09:02:00,
2013-02-03 04:07:00,1.9,-6.9,29.88,North,0,0.0,0.0,66,0.00,,,0.00,meteohub,2013-02-03 09:07:00,
2013-02-03 04:12:00,1.8,-6.9,29.88,North,0,0.0,0.0,66,0.00,,,0.00,meteohub,2013-02-03 09:12:00,
2013-02-03 04:17:00,1.4,-7.6,29.88,North,0,0.0,0.0,65,0.00,,,0.00,meteohub,2013-02-03 09:17:00,
2013-02-03 04:22:00,1.2,-9.0,29.88,North,0,0.0,0.0,61,0.00,,,0.00,meteohub,2013-02-03 09:22:00,
2013-02-03 04:27:00,0.9,-9.4,29.88,North,0,0.0,0.0,61,0.00,,,0.00,meteohub,2013-02-03 09:27:00,
2013-02-03 04:32:00,0.5,-9.8,29.88,North,0,0.0,0.0,61,0.00,,,0.00,meteohub,2013-02-03 09:32:00,
2013-02-03 04:37:00,0.3,-9.9,29.88,North,0,0.0,0.0,61,0.00,,,0.00,meteohub,2013-02-03 09:37:00,
2013-02-03 04:42:00,0.0,-10.3,29.88,North,0,0.0,0.0,61,0.00,,,0.00,meteohub,2013-02-03 09:42:00,
2013-02-03 04:47:00,-0.2,-10.5,29.88,North,0,0.0,0.0,61,0.00,,,0.00,meteohub,2013-02-03 09:47:00,
2013-02-03 04:52:00,-0.4,-10.7,29.88,North,0,0.0,0.0,61,0.00,,,0.00,meteohub,2013-02-03 09:52:00,
2013-02-03 04:57:00,-0.6,-10.5,29.88,North,0,0.0,0.0,62,0.00,,,0.00,meteohub,2013-02-03 09:57:00,
2013-02-03 05:02:00,-0.6,-10.5,29.88,North,0,0.0,0.0,62,0.00,,,0.00,meteohub,2013-02-03 10:02:00,
2013-02-03 05:07:00,-0.6,-10.5,29.88,North,0,0.0,0.0,62,0.00,,,0.00,meteohub,2013-02-03 10:07:00,
2013-02-03 05:12:00,-1.1,-11.4,29.88,North,0,0.0,0.0,61,0.00,,,0.00,meteohub,2013-02-03 10:12:00,
2013-02-03 05:17:00,-1.3,-11.6,29.88,North,0,0.0,0.0,61,0.00,,,0.00,meteohub,2013-02-03 10:17:00,
2013-02-03 05:22:00,-1.7,-11.7,29.88,North,0,0.0,0.0,61,0.00,,,0.00,meteohub,2013-02-03 10:22:00,
2013-02-03 05:27:00,-1.8,-12.3,29.88,North,0,0.0,0.0,60,0.00,,,0.00,meteohub,2013-02-03 10:27:00,
2013-02-03 05:32:00,-1.8,-12.3,29.88,North,0,0.0,0.0,60,0.00,,,0.00,meteohub,2013-02-03 10:32:00,
2013-02-03 05:37:00,-2.0,-12.5,29.88,North,0,0.0,0.0,60,0.00,,,0.00,meteohub,2013-02-03 10:37:00,
2013-02-03 05:42:00,-2.0,-12.5,29.88,North,0,0.0,0.0,60,0.00,,,0.00,meteohub,2013-02-03 10:42:00,
2013-02-03 05:47:00,-2.2,-12.6,29.88,North,0,0.0,0.0,60,0.00,,,0.00,meteohub,2013-02-03 10:47:00,
2013-02-03 05:52:00,-2.2,-12.6,29.88,North,0,0.0,0.0,60,0.00,,,0.00,meteohub,2013-02-03 10:52:00,
2013-02-03 05:57:00,-2.4,-12.5,29.88,North,0,0.0,0.0,61,0.00,,,0.00,meteohub,2013-02-03 10:57:00,
2013-02-03 06:02:00,-2.6,-12.6,29.88,North,0,0.0,0.0,61,0.00,,,0.00,meteohub,2013-02-03 11:02:00,
2013-02-03 06:07:00,-2.7,-12.8,29.88,North,0,0.0,0.0,61,0.00,,,0.00,meteohub,2013-02-03 11:07:00,
2013-02-03 06:12:00,-2.9,-13.4,29.88,North,0,0.0,0.0,60,0.00,,,0.00,meteohub,2013-02-03 11:12:00,
2013-02-03 06:17:00,-2.9,-13.4,29.88,North,0,0.0,0.0,60,0.00,,,0.00,meteohub,2013-02-03 11:17:00,
2013-02-03 06:22:00,-2.7,-13.2,29.88,North,0,0.0,0.0,60,0.00,,,0.00,meteohub,2013-02-03 11:22:00,
2013-02-03 06:27:00,-2.4,-12.5,29.88,North,0,0.0,0.0,61,0.00,,,0.00,meteohub,2013-02-03 11:27:00,
2013-02-03 06:32:00,-2.0,-12.5,29.87,North,0,0.0,0.0,60,0.00,,,0.00,meteohub,2013-02-03 11:32:00,
2013-02-03 06:37:00,-1.7,-11.7,29.87,NE,45,0.0,0.0,61,0.00,,,0.00,meteohub,2013-02-03 11:37:00,
2013-02-03 06:42:00,-1.3,-11.6,29.87,NE,45,0.0,0.0,61,0.00,,,0.00,meteohub,2013-02-03 11:42:00,
2013-02-03 06:47:00,-1.1,-11.4,29.87,NE,45,0.0,0.0,61,0.00,,,0.00,meteohub,2013-02-03 11:47:00,
2013-02-03 06:52:00,-0.9,-10.8,29.87,NE,45,0.0,0.0,62,0.00,,,0.00,meteohub,2013-02-03 11:52:00,
2013-02-03 06:57:00,-0.6,-10.5,29.87,NE,45,0.0,0.0,62,0.00,,,0.00,meteohub,2013-02-03 11:57:00,
2013-02-03 07:02:00,-0.6,-10.5,29.87,NE,45,0.0,0.0,62,0.00,,,0.00,meteohub,2013-02-03 12:02:00,
2013-02-03 07:07:00,-0.4,-10.7,29.87,NE,45,0.0,0.0,61,0.00,,,0.00,meteohub,2013-02-03 12:07:00,
2013-02-03 07:12:00,-0.6,-10.5,29.86,NE,45,0.0,0.0,62,0.00,,,0.00,meteohub,2013-02-03 12:12:00,
2013-02-03 07:17:00,-0.8,-10.7,29.87,NE,45,0.0,0.0,62,0.00,,,0.00,meteohub,2013-02-03 12:17:00,
2013-02-03 07:22:00,-0.9,-10.8,29.87,NE,45,0.0,0.0,62,0.00,,,0.00,meteohub,2013-02-03 12:22:00,
2013-02-03 07:28:00,-0.9,-10.8,29.87,NW,315,0.0,0.0,62,0.00,,,0.00,meteohub,2013-02-03 12:28:00,
2013-02-03 07:33:00,-0.9,-10.8,29.87,West,270,0.0,0.0,62,0.00,,,0.00,meteohub,2013-02-03 12:33:00,
2013-02-03 07:38:00,-0.8,-10.7,29.86,West,270,0.0,0.0,62,0.00,,,0.00,meteohub,2013-02-03 12:38:00,
2013-02-03 07:43:00,-0.6,-10.5,29.87,East,90,0.0,0.0,62,0.00,,,0.00,meteohub,2013-02-03 12:43:00,
2013-02-03 07:48:00,-0.4,-10.7,29.86,East,90,0.0,0.0,61,0.00,,,0.00,meteohub,2013-02-03 12:48:00,
2013-02-03 07:53:00,-0.2,-10.5,29.86,East,90,0.0,0.0,61,0.00,,,0.00,meteohub,2013-02-03 12:53:00,
2013-02-03 07:58:00,0.1,-10.1,29.86,East,90,0.0,0.0,61,0.00,,,0.00,meteohub,2013-02-03 12:58:00,
2013-02-03 08:03:00,0.3,-9.9,29.86,East,90,0.0,0.0,61,0.00,,,0.00,meteohub,2013-02-03 13:03:00,
2013-02-03 08:09:00,0.7,-9.6,29.86,East,90,0.0,0.0,61,0.00,,,0.00,meteohub,2013-02-03 13:09:00,
2013-02-03 08:14:00,1.2,-9.0,29.86,East,90,0.0,0.0,61,0.00,,,0.00,meteohub,2013-02-03 13:14:00,
2013-02-03 08:19:00,1.6,-7.1,29.86,NE,45,0.0,0.0,66,0.00,,,0.00,meteohub,2013-02-03 13:19:00,
2013-02-03 08:24:00,1.9,-6.9,29.86,NE,45,0.0,0.0,66,0.00,,,0.00,meteohub,2013-02-03 13:24:00,
2013-02-03 08:29:00,2.1,-6.7,29.87,NW,315,0.0,0.0,66,0.00,,,0.00,meteohub,2013-02-03 13:29:00,
2013-02-03 08:34:00,2.5,-6.3,29.86,North,0,0.0,0.0,66,0.00,,,0.00,meteohub,2013-02-03 13:34:00,
2013-02-03 08:39:00,2.7,-6.2,29.87,North,0,0.0,0.0,66,0.00,,,0.00,meteohub,2013-02-03 13:39:00,
2013-02-03 08:44:00,3.0,-5.8,29.87,North,0,0.0,0.0,66,0.00,,,0.00,meteohub,2013-02-03 13:44:00,
2013-02-03 08:50:00,3.6,-5.6,29.87,North,0,0.0,0.0,65,0.00,,,0.00,meteohub,2013-02-03 13:50:00,
2013-02-03 08:55:00,4.3,-4.5,29.87,North,0,0.0,0.0,66,0.00,,,0.00,meteohub,2013-02-03 13:55:00,
2013-02-03 09:00:00,5.0,-4.2,29.87,West,270,0.0,0.0,65,0.00,,,0.00,meteohub,2013-02-03 14:00:00,
2013-02-03 09:05:00,5.7,-3.5,29.87,SW,225,0.0,0.0,65,0.00,,,0.00,meteohub,2013-02-03 14:05:00,
2013-02-03 09:10:00,6.4,-2.6,29.87,West,270,0.0,0.0,66,0.00,,,0.00,meteohub,2013-02-03 14:10:00,
2013-02-03 09:15:00,6.8,-2.4,29.87,West,270,0.0,0.0,65,0.00,,,0.00,meteohub,2013-02-03 14:15:00,
2013-02-03 09:20:00,7.2,-2.2,29.87,SW,225,0.0,0.0,65,0.00,,,0.00,meteohub,2013-02-03 14:20:00,
2013-02-03 09:26:00,7.7,-1.7,29.87,West,270,0.0,0.0,65,0.00,,,0.00,meteohub,2013-02-03 14:26:00,
2013-02-03 09:31:00,8.2,-1.1,29.87,SW,225,0.0,0.0,65,0.00,,,0.00,meteohub,2013-02-03 14:31:00,
2013-02-03 09:36:00,9.0,-0.8,29.87,SW,225,0.0,0.0,64,0.00,,,0.00,meteohub,2013-02-03 14:36:00,
2013-02-03 09:41:00,9.5,0.1,29.87,South,180,0.0,0.0,65,0.00,,,0.00,meteohub,2013-02-03 14:41:00,
2013-02-03 09:46:00,10.2,0.9,29.86,West,270,0.0,0.0,65,0.00,,,0.00,meteohub,2013-02-03 14:46:00,
2013-02-03 09:51:00,10.6,2.5,29.86,SW,225,0.0,0.0,69,0.00,,,0.00,meteohub,2013-02-03 14:51:00,
2013-02-03 09:56:00,10.9,2.8,29.86,West,270,0.0,0.0,69,0.00,,,0.00,meteohub,2013-02-03 14:56:00,
2013-02-03 10:02:00,11.3,2.8,29.86,SW,225,0.0,0.0,68,0.00,,,0.00,meteohub,2013-02-03 15:02:00,
2013-02-03 10:07:00,11.7,3.2,29.85,South,180,0.0,0.0,68,0.00,,,0.00,meteohub,2013-02-03 15:07:00,
2013-02-03 10:12:00,12.0,3.6,29.85,SW,225,0.0,0.0,68,0.00,,,0.00,meteohub,2013-02-03 15:12:00,
2013-02-03 10:17:00,12.6,3.7,29.85,South,180,0.0,0.0,67,0.00,,,0.00,meteohub,2013-02-03 15:17:00,
2013-02-03 10:22:00,13.1,4.3,29.85,SW,225,0.0,0.0,67,0.00,,,0.00,meteohub,2013-02-03 15:22:00,
2013-02-03 10:27:00,13.6,4.6,29.85,West,270,0.0,0.0,67,0.00,,,0.00,meteohub,2013-02-03 15:27:00,
2013-02-03 10:32:00,14.4,5.0,29.85,South,180,0.0,0.0,66,0.00,,,0.00,meteohub,2013-02-03 15:32:00,
2013-02-03 10:37:00,14.7,5.2,29.85,South,180,0.0,0.0,65,0.00,,,0.00,meteohub,2013-02-03 15:37:00,
2013-02-03 10:42:00,15.1,5.4,29.85,SW,225,0.0,0.0,65,0.00,,,0.00,meteohub,2013-02-03 15:42:00,
2013-02-03 10:47:00,15.6,5.9,29.85,SW,225,0.0,0.0,65,0.00,,,0.00,meteohub,2013-02-03 15:47:00,
2013-02-03 10:52:00,16.0,5.5,29.85,NW,315,0.0,0.0,63,0.00,,,0.00,meteohub,2013-02-03 15:52:00,
2013-02-03 10:57:00,16.0,5.5,29.85,South,180,0.0,0.0,63,0.00,,,0.00,meteohub,2013-02-03 15:57:00,
2013-02-03 11:02:00,16.2,5.4,29.84,SW,225,0.0,0.0,62,0.00,,,0.00,meteohub,2013-02-03 16:02:00,
2013-02-03 11:07:00,16.5,5.7,29.84,West,270,0.0,0.0,62,0.00,,,0.00,meteohub,2013-02-03 16:07:00,
2013-02-03 11:12:00,16.7,5.9,29.84,SW,225,0.0,0.0,62,0.00,,,0.00,meteohub,2013-02-03 16:12:00,
2013-02-03 11:17:00,16.9,5.7,29.84,West,270,0.0,0.0,61,0.00,,,0.00,meteohub,2013-02-03 16:17:00,
2013-02-03 11:22:00,16.9,5.7,29.84,West,270,0.0,0.0,61,0.00,,,0.00,meteohub,2013-02-03 16:22:00,
2013-02-03 11:27:00,17.4,6.3,29.83,West,270,0.0,0.0,61,0.00,,,0.00,meteohub,2013-02-03 16:27:00,
2013-02-03 11:32:00,17.6,5.7,29.83,West,270,0.0,0.0,59,0.00,,,0.00,meteohub,2013-02-03 16:32:00,
2013-02-03 11:37:00,17.8,5.9,29.83,West,270,0.0,0.0,59,0.00,,,0.00,meteohub,2013-02-03 16:37:00,
2013-02-03 11:42:00,18.1,6.6,29.83,West,270,0.0,0.0,60,0.00,,,0.00,meteohub,2013-02-03 16:42:00,
2013-02-03 11:47:00,18.3,6.8,29.83,SW,225,0.0,0.0,60,0.00,,,0.00,meteohub,2013-02-03 16:47:00,
2013-02-03 11:52:00,18.5,7.0,29.83,NNW,338,0.0,0.0,60,0.00,,,0.00,meteohub,2013-02-03 16:52:00,
2013-02-03 11:57:00,18.7,7.2,29.83,West,270,0.0,0.0,60,0.00,,,0.00,meteohub,2013-02-03 16:57:00,
2013-02-03 12:02:00,18.9,7.3,29.83,West,270,0.0,0.0,60,0.00,,,0.00,meteohub,2013-02-03 17:02:00,
2013-02-03 12:07:00,18.9,7.7,29.82,SW,225,0.0,0.0,61,0.00,,,0.00,meteohub,2013-02-03 17:07:00,
2013-02-03 12:13:00,19.4,9.5,29.82,South,180,0.0,0.0,65,0.00,,,0.00,meteohub,2013-02-03 17:13:00,
2013-02-03 12:18:00,19.6,9.7,29.82,SW,225,0.0,0.0,65,0.00,,,0.00,meteohub,2013-02-03 17:18:00,
2013-02-03 12:23:00,19.9,10.0,29.82,SE,135,0.0,0.0,65,0.00,,,0.00,meteohub,2013-02-03 17:23:00,
2013-02-03 12:28:00,20.1,10.2,29.82,SW,225,0.0,0.0,65,0.00,,,0.00,meteohub,2013-02-03 17:28:00,
2013-02-03 12:33:00,20.3,10.4,29.81,South,180,0.0,0.0,65,0.00,,,0.00,meteohub,2013-02-03 17:33:00,
2013-02-03 12:38:00,20.5,10.6,29.81,SW,225,0.0,0.0,65,0.00,,,0.00,meteohub,2013-02-03 17:38:00,
2013-02-03 12:43:00,20.5,10.2,29.81,SW,225,0.0,0.0,64,0.00,,,0.00,meteohub,2013-02-03 17:43:00,
2013-02-03 12:49:00,20.8,10.9,29.80,West,270,0.0,0.0,65,0.00,,,0.00,meteohub,2013-02-03 17:49:00,
2013-02-03 12:54:00,21.0,10.8,29.81,SW,225,0.0,0.0,64,0.00,,,0.00,meteohub,2013-02-03 17:54:00,
2013-02-03 12:59:00,21.6,10.9,29.80,SW,225,0.0,0.0,63,0.00,,,0.00,meteohub,2013-02-03 17:59:00,
2013-02-03 13:04:00,21.7,10.8,29.80,West,270,0.0,0.0,62,0.00,,,0.00,meteohub,2013-02-03 18:04:00,
2013-02-03 13:09:00,21.7,10.4,29.80,West,270,0.0,0.0,61,0.00,,,0.00,meteohub,2013-02-03 18:09:00,
2013-02-03 13:14:00,22.1,10.8,29.81,SW,225,0.0,0.0,61,0.00,,,0.00,meteohub,2013-02-03 18:14:00,
2013-02-03 13:19:00,22.1,10.4,29.80,SW,225,0.0,0.0,60,0.00,,,0.00,meteohub,2013-02-03 18:19:00,
2013-02-03 13:24:00,22.1,10.0,29.80,West,270,0.0,0.0,59,0.00,,,0.00,meteohub,2013-02-03 18:24:00,
2013-02-03 13:29:00,22.1,10.0,29.80,West,270,0.0,0.0,59,0.00,,,0.00,meteohub,2013-02-03 18:29:00,
2013-02-03 13:35:00,22.1,10.0,29.80,SW,225,0.0,0.0,59,0.00,,,0.00,meteohub,2013-02-03 18:35:00,
2013-02-03 13:40:00,21.9,9.9,29.80,NW,315,0.0,0.0,59,0.00,,,0.00,meteohub,2013-02-03 18:40:00,
2013-02-03 13:45:00,22.3,10.2,29.80,NW,315,0.0,0.0,59,0.00,,,0.00,meteohub,2013-02-03 18:45:00,
2013-02-03 13:50:00,22.5,10.2,29.80,West,270,0.0,0.0,59,0.00,,,0.00,meteohub,2013-02-03 18:50:00,
2013-02-03 13:55:00,22.3,10.6,29.80,SW,225,0.0,0.0,60,0.00,,,0.00,meteohub,2013-02-03 18:55:00,
2013-02-03 14:00:00,22.1,10.4,29.80,West,270,0.0,0.0,60,0.00,,,0.00,meteohub,2013-02-03 19:00:00,
2013-02-03 14:05:00,22.1,10.4,29.79,SW,225,0.0,0.0,60,0.00,,,0.00,meteohub,2013-02-03 19:05:00,
2013-02-03 14:10:00,21.7,10.0,29.79,NW,315,0.0,0.0,60,0.00,,,0.00,meteohub,2013-02-03 19:10:00,
2013-02-03 14:16:00,21.7,10.0,29.80,North,0,0.0,0.0,60,0.00,,,0.00,meteohub,2013-02-03 19:16:00,
2013-02-03 14:21:00,21.6,10.2,29.79,SW,225,0.0,0.0,61,0.00,,,0.00,meteohub,2013-02-03 19:21:00,
2013-02-03 14:26:00,21.4,10.0,29.79,NW,315,0.0,0.0,61,0.00,,,0.00,meteohub,2013-02-03 19:26:00,
2013-02-03 14:31:00,21.2,10.2,29.78,West,270,0.0,0.0,62,0.00,,,0.00,meteohub,2013-02-03 19:31:00,
2013-02-03 14:36:00,21.2,10.9,29.79,West,270,0.0,0.0,64,0.00,,,0.00,meteohub,2013-02-03 19:36:00,
2013-02-03 14:41:00,21.2,10.9,29.79,West,270,0.0,0.0,64,0.00,,,0.00,meteohub,2013-02-03 19:41:00,
2013-02-03 14:46:00,21.2,11.3,29.79,West,270,0.0,0.0,65,0.00,,,0.00,meteohub,2013-02-03 19:46:00,
2013-02-03 14:51:00,21.2,11.3,29.79,SW,225,0.0,0.0,65,0.00,,,0.00,meteohub,2013-02-03 19:51:00,
2013-02-03 14:57:00,21.2,11.7,29.79,West,270,0.0,0.0,66,0.00,,,0.00,meteohub,2013-02-03 19:57:00,
2013-02-03 15:02:00,21.2,11.7,29.80,West,270,0.0,0.0,66,0.00,,,0.00,meteohub,2013-02-03 20:02:00,
2013-02-03 15:07:00,21.2,12.0,29.80,NW,315,0.0,0.0,67,0.00,,,0.00,meteohub,2013-02-03 20:07:00,
2013-02-03 15:12:00,21.0,12.2,29.80,SW,225,0.0,0.0,68,0.00,,,0.00,meteohub,2013-02-03 20:12:00,
2013-02-03 15:17:00,20.8,12.0,29.81,NW,315,0.0,0.0,68,0.00,,,0.00,meteohub,2013-02-03 20:17:00,
2013-02-03 15:22:00,20.8,12.2,29.81,SW,225,0.0,0.0,69,0.00,,,0.00,meteohub,2013-02-03 20:22:00,
2013-02-03 15:27:00,20.7,12.0,29.81,West,270,0.0,0.0,69,0.00,,,0.00,meteohub,2013-02-03 20:27:00,
2013-02-03 15:32:00,20.5,12.2,29.81,West,270,0.0,0.0,70,0.00,,,0.00,meteohub,2013-02-03 20:32:00,
2013-02-03 15:37:00,20.3,12.4,29.81,WSW,248,0.0,0.0,71,0.00,,,0.00,meteohub,2013-02-03 20:37:00,
2013-02-03 15:42:00,20.5,12.9,29.81,NE,45,0.0,0.0,72,0.00,,,0.00,meteohub,2013-02-03 20:42:00,
2013-02-03 15:47:00,20.5,13.3,29.81,North,0,0.0,0.0,73,0.00,,,0.00,meteohub,2013-02-03 20:47:00,
2013-02-03 15:52:00,20.7,13.5,29.82,West,270,0.0,0.0,73,0.00,,,0.00,meteohub,2013-02-03 20:52:00,
2013-02-03 15:57:00,20.5,13.5,29.82,SW,225,0.0,0.0,74,0.00,,,0.00,meteohub,2013-02-03 20:57:00,
2013-02-03 16:02:00,20.7,13.6,29.82,SW,225,0.0,0.0,74,0.00,,,0.00,meteohub,2013-02-03 21:02:00,
2013-02-03 16:07:00,20.7,13.6,29.82,North,0,0.0,0.0,74,0.00,,,0.00,meteohub,2013-02-03 21:07:00,
2013-02-03 16:12:00,20.7,13.6,29.82,West,270,0.0,0.0,74,0.00,,,0.00,meteohub,2013-02-03 21:12:00,
2013-02-03 16:17:00,20.7,13.5,29.82,SW,225,0.0,0.0,73,0.00,,,0.00,meteohub,2013-02-03 21:17:00,
2013-02-03 16:22:00,20.7,13.1,29.82,West,270,0.0,0.0,72,0.00,,,0.00,meteohub,2013-02-03 21:22:00,
2013-02-03 16:27:00,20.7,12.7,29.82,SW,225,0.0,0.0,71,0.00,,,0.00,meteohub,2013-02-03 21:27:00,
2013-02-03 16:32:00,20.7,12.7,29.83,West,270,0.0,0.0,71,0.00,,,0.00,meteohub,2013-02-03 21:32:00,
2013-02-03 16:37:00,20.7,12.4,29.83,North,0,0.0,0.0,70,0.00,,,0.00,meteohub,2013-02-03 21:37:00,
2013-02-03 16:42:00,20.7,12.0,29.83,West,270,0.0,0.0,69,0.00,,,0.00,meteohub,2013-02-03 21:42:00,
2013-02-03 16:47:00,20.7,12.0,29.83,West,270,0.0,0.0,69,0.00,,,0.00,meteohub,2013-02-03 21:47:00,
2013-02-03 16:52:00,20.5,11.7,29.83,West,270,0.0,0.0,68,0.00,,,0.00,meteohub,2013-02-03 21:52:00,
2013-02-03 16:57:00,19.9,11.1,29.83,South,180,0.0,0.0,68,0.00,,,0.00,meteohub,2013-02-03 21:57:00,
2013-02-03 17:02:00,19.6,10.8,29.84,West,270,0.0,0.0,68,0.00,,,0.00,meteohub,2013-02-03 22:02:00,
2013-02-03 17:08:00,19.4,10.9,29.84,NW,315,0.0,0.0,69,0.00,,,0.00,meteohub,2013-02-03 22:08:00,
2013-02-03 17:13:00,19.4,10.6,29.84,SW,225,0.0,0.0,68,0.00,,,0.00,meteohub,2013-02-03 22:13:00,
2013-02-03 17:18:00,19.2,9.0,29.84,NW,315,0.0,0.0,64,0.00,,,0.00,meteohub,2013-02-03 22:18:00,
2013-02-03 17:23:00,19.0,8.2,29.84,North,0,0.0,0.0,62,0.00,,,0.00,meteohub,2013-02-03 22:23:00,
2013-02-03 17:28:00,19.0,7.9,29.84,NW,315,0.0,0.0,61,0.00,,,0.00,meteohub,2013-02-03 22:28:00,
2013-02-03 17:33:00,19.0,7.9,29.85,NW,315,0.0,0.0,61,0.00,,,0.00,meteohub,2013-02-03 22:33:00,
2013-02-03 17:38:00,19.0,7.9,29.85,NW,315,0.0,0.0,61,0.00,,,0.00,meteohub,2013-02-03 22:38:00,
2013-02-03 17:43:00,18.7,5.9,29.86,NW,315,0.0,0.0,57,0.00,,,0.00,meteohub,2013-02-03 22:43:00,
2013-02-03 17:49:00,18.7,5.2,29.86,NW,315,0.0,0.0,55,0.00,,,0.00,meteohub,2013-02-03 22:49:00,
2013-02-03 17:54:00,18.7,4.8,29.86,NW,315,0.0,0.0,54,0.00,,,0.00,meteohub,2013-02-03 22:54:00,
2013-02-03 17:59:00,18.7,4.8,29.86,SW,225,0.0,0.0,54,0.00,,,0.00,meteohub,2013-02-03 22:59:00,
2013-02-03 18:04:00,18.7,4.5,29.86,NW,315,0.0,0.0,53,0.00,,,0.00,meteohub,2013-02-03 23:04:00,
2013-02-03 18:09:00,18.5,4.3,29.86,West,270,0.0,0.0,53,0.00,,,0.00,meteohub,2013-02-03 23:09:00,
2013-02-03 18:14:00,18.5,4.3,29.87,North,0,0.0,0.0,53,0.00,,,0.00,meteohub,2013-02-03 23:14:00,
2013-02-03 18:19:00,18.5,4.3,29.87,NW,315,0.0,0.0,53,0.00,,,0.00,meteohub,2013-02-03 23:19:00,
2013-02-03 18:24:00,18.3,4.5,29.87,NW,315,0.0,0.0,54,0.00,,,0.00,meteohub,2013-02-03 23:24:00,
2013-02-03 18:29:00,18.1,4.6,29.87,West,270,0.0,0.0,55,0.00,,,0.00,meteohub,2013-02-03 23:29:00,
2013-02-03 18:35:00,18.1,5.0,29.87,West,270,0.0,0.0,56,0.00,,,0.00,meteohub,2013-02-03 23:35:00,
2013-02-03 18:40:00,18.0,5.4,29.88,NW,315,0.0,0.0,57,0.00,,,0.00,meteohub,2013-02-03 23:40:00,
2013-02-03 18:45:00,18.0,5.0,29.88,West,270,0.0,0.0,56,0.00,,,0.00,meteohub,2013-02-03 23:45:00,
2013-02-03 18:50:00,18.0,5.0,29.88,North,0,0.0,0.0,56,0.00,,,0.00,meteohub,2013-02-03 23:50:00,
2013-02-03 18:55:00,18.0,4.5,29.89,North,0,0.0,0.0,55,0.00,,,0.00,meteohub,2013-02-03 23:55:00,
2013-02-03 19:00:00,17.8,4.3,29.89,NW,315,0.0,0.0,55,0.00,,,0.00,meteohub,2013-02-04 00:00:00,
2013-02-03 19:05:00,17.8,4.3,29.89,NW,315,0.0,0.0,55,0.00,,,0.00,meteohub,2013-02-04 00:05:00,
2013-02-03 19:10:00,17.6,4.1,29.89,North,0,0.0,0.0,55,0.00,,,0.00,meteohub,2013-02-04 00:10:00,
2013-02-03 19:16:00,17.4,4.5,29.90,NW,315,0.0,0.0,56,0.00,,,0.00,meteohub,2013-02-04 00:16:00,
2013-02-03 19:21:00,17.2,4.3,29.90,North,0,0.0,0.0,56,0.00,,,0.00,meteohub,2013-02-04 00:21:00,
2013-02-03 19:26:00,17.2,3.9,29.90,NW,315,0.0,0.0,55,0.00,,,0.00,meteohub,2013-02-04 00:26:00,
2013-02-03 19:31:00,17.2,3.9,29.90,NW,315,0.0,0.0,55,0.00,,,0.00,meteohub,2013-02-04 00:31:00,
2013-02-03 19:36:00,17.1,3.7,29.90,West,270,0.0,0.0,55,0.00,,,0.00,meteohub,2013-02-04 00:36:00,
2013-02-03 19:41:00,17.1,3.7,29.90,NW,315,0.0,0.0,55,0.00,,,0.00,meteohub,2013-02-04 00:41:00,
2013-02-03 19:46:00,16.9,3.2,29.91,NW,315,0.0,0.0,54,0.00,,,0.00,meteohub,2013-02-04 00:46:00,
2013-02-03 19:51:00,16.9,3.2,29.91,West,270,0.0,0.0,54,0.00,,,0.00,meteohub,2013-02-04 00:51:00,
2013-02-03 19:57:00,16.9,3.2,29.91,South,180,0.0,0.0,54,0.00,,,0.00,meteohub,2013-02-04 00:57:00,
2013-02-03 20:02:00,16.9,3.2,29.91,West,270,0.0,0.0,54,0.00,,,0.00,meteohub,2013-02-04 01:02:00,
2013-02-03 20:07:00,16.9,2.7,29.91,NW,315,0.0,0.0,53,0.00,,,0.00,meteohub,2013-02-04 01:07:00,
2013-02-03 20:12:00,16.9,2.7,29.91,West,270,0.0,0.0,53,0.00,,,0.00,meteohub,2013-02-04 01:12:00,
2013-02-03 20:17:00,16.9,2.7,29.92,NW,315,0.0,0.0,53,0.00,,,0.00,meteohub,2013-02-04 01:17:00,
2013-02-03 20:22:00,16.7,2.5,29.92,NW,315,0.0,0.0,53,0.00,,,0.00,meteohub,2013-02-04 01:22:00,
2013-02-03 20:27:00,16.7,2.5,29.92,NW,315,0.0,0.0,53,0.00,,,0.00,meteohub,2013-02-04 01:27:00,
2013-02-03 20:32:00,16.7,2.5,29.92,NW,315,0.0,0.0,53,0.00,,,0.00,meteohub,2013-02-04 01:32:00,
2013-02-03 20:37:00,16.7,2.5,29.92,North,0,0.0,0.0,53,0.00,,,0.00,meteohub,2013-02-04 01:37:00,
2013-02-03 20:42:00,16.5,1.9,29.92,WNW,293,0.0,0.0,52,0.00,,,0.00,meteohub,2013-02-04 01:42:00,
2013-02-03 20:47:00,16.5,1.9,29.93,NW,315,0.0,0.0,52,0.00,,,0.00,meteohub,2013-02-04 01:47:00,
2013-02-03 20:52:00,16.5,1.9,29.93,West,270,0.0,0.0,52,0.00,,,0.00,meteohub,2013-02-04 01:52:00,
2013-02-03 20:57:00,16.5,1.9,29.93,SW,225,0.0,0.0,52,0.00,,,0.00,meteohub,2013-02-04 01:57:00,
2013-02-03 21:02:00,16.5,1.9,29.93,West,270,0.0,0.0,52,0.00,,,0.00,meteohub,2013-02-04 02:02:00,
2013-02-03 21:07:00,16.5,1.9,29.94,West,270,0.0,0.0,52,0.00,,,0.00,meteohub,2013-02-04 02:07:00,
2013-02-03 21:12:00,16.5,1.9,29.94,NW,315,0.0,0.0,52,0.00,,,0.00,meteohub,2013-02-04 02:12:00,
2013-02-03 21:17:00,16.5,1.9,29.94,SW,225,0.0,0.0,52,0.00,,,0.00,meteohub,2013-02-04 02:17:00,
2013-02-03 21:22:00,16.3,1.4,29.94,NW,315,0.0,0.0,51,0.00,,,0.00,meteohub,2013-02-04 02:22:00,
2013-02-03 21:27:00,16.3,1.0,29.94,North,0,0.0,0.0,50,0.00,,,0.00,meteohub,2013-02-04 02:27:00,
2013-02-03 21:32:00,16.5,0.7,29.94,NW,315,0.0,0.0,49,0.00,,,0.00,meteohub,2013-02-04 02:32:00,
2013-02-03 21:37:00,16.3,0.5,29.94,NW,315,0.0,0.0,49,0.00,,,0.00,meteohub,2013-02-04 02:37:00,
2013-02-03 21:42:00,16.3,0.5,29.94,North,0,0.0,0.0,49,0.00,,,0.00,meteohub,2013-02-04 02:42:00,
2013-02-03 21:47:00,16.3,0.5,29.94,North,0,0.0,0.0,49,0.00,,,0.00,meteohub,2013-02-04 02:47:00,
2013-02-03 21:52:00,16.3,0.5,29.93,NW,315,0.0,0.0,49,0.00,,,0.00,meteohub,2013-02-04 02:52:00,
2013-02-03 21:57:00,16.3,0.5,29.94,NW,315,0.0,0.0,49,0.00,,,0.00,meteohub,2013-02-04 02:57:00,
2013-02-03 22:02:00,16.3,0.5,29.94,NE,45,0.0,0.0,49,0.00,,,0.00,meteohub,2013-02-04 03:02:00,
2013-02-03 22:07:00,16.3,0.5,29.94,North,0,0.0,0.0,49,0.00,,,0.00,meteohub,2013-02-04 03:07:00,
2013-02-03 22:12:00,16.3,0.5,29.94,North,0,0.0,0.0,49,0.00,,,0.00,meteohub,2013-02-04 03:12:00,
2013-02-03 22:17:00,16.3,0.5,29.94,NW,315,0.0,0.0,49,0.00,,,0.00,meteohub,2013-02-04 03:17:00,
2013-02-03 22:22:00,16.3,1.0,29.94,NW,315,0.0,0.0,50,0.00,,,0.00,meteohub,2013-02-04 03:22:00,
2013-02-03 22:28:00,16.3,1.0,29.95,North,0,0.0,0.0,50,0.00,,,0.00,meteohub,2013-02-04 03:28:00,
2013-02-03 22:33:00,16.3,1.0,29.95,NW,315,0.0,0.0,50,0.00,,,0.00,meteohub,2013-02-04 03:33:00,
2013-02-03 22:38:00,16.3,1.0,29.94,SW,225,0.0,0.0,50,0.00,,,0.00,meteohub,2013-02-04 03:38:00,
2013-02-03 22:43:00,16.3,1.4,29.94,NW,315,0.0,0.0,51,0.00,,,0.00,meteohub,2013-02-04 03:43:00,
2013-02-03 22:48:00,16.3,1.4,29.94,SE,135,0.0,0.0,51,0.00,,,0.00,meteohub,2013-02-04 03:48:00,
2013-02-03 22:53:00,16.3,1.4,29.94,SW,225,0.0,0.0,51,0.00,,,0.00,meteohub,2013-02-04 03:53:00,
2013-02-03 22:58:00,16.3,1.8,29.95,West,270,0.0,0.0,52,0.00,,,0.00,meteohub,2013-02-04 03:58:00,
2013-02-03 23:04:00,16.3,1.8,29.95,West,270,0.0,0.0,52,0.00,,,0.00,meteohub,2013-02-04 04:04:00,
2013-02-03 23:09:00,16.3,1.8,29.94,SW,225,0.0,0.0,52,0.00,,,0.00,meteohub,2013-02-04 04:09:00,
2013-02-03 23:14:00,16.3,1.8,29.94,SW,225,0.0,0.0,52,0.00,,,0.00,meteohub,2013-02-04 04:14:00,
2013-02-03 23:19:00,16.3,1.8,29.94,West,270,0.0,0.0,52,0.00,,,0.00,meteohub,2013-02-04 04:19:00,
2013-02-03 23:24:00,16.3,1.8,29.94,West,270,0.0,0.0,52,0.00,,,0.00,meteohub,2013-02-04 04:24:00,
2013-02-03 23:29:00,16.2,2.1,29.94,SW,225,0.0,0.0,53,0.00,,,0.00,meteohub,2013-02-04 04:29:00,
2013-02-03 23:34:00,16.2,2.1,29.94,SW,225,0.0,0.0,53,0.00,,,0.00,meteohub,2013-02-04 04:34:00,
2013-02-03 23:39:00,16.2,2.1,29.94,SW,225,0.0,0.0,53,0.00,,,0.00,meteohub,2013-02-04 04:39:00,
2013-02-03 23:44:00,16.2,2.5,29.94,SW,225,0.0,0.0,54,0.00,,,0.00,meteohub,2013-02-04 04:44:00,
2013-02-03 23:50:00,16.2,2.5,29.94,West,270,0.0,0.0,54,0.00,,,0.00,meteohub,2013-02-04 04:50:00,
2013-02-03 23:55:00,16.0,2.3,29.94,SW,225,0.0,0.0,54,0.00,,,0.00,meteohub,2013-02-04 04:55:00,